Latest Weather Observations for PORTABLE RFSNSW52

IDN60801

Issued at 3:23 pm EST Wednesday 14 April 2021 (issued every 10 minutes, with the page automatically refreshed every 10 minutes)

About weather observations | Map of weather stations | Latest weather observations for NSW | Other Formats
Station Details ID: 250095 Name: PORTABLE RFSNSW52 Lat: -35.44 Lon: 146.44 Height: 146.0 m

Portable automatic weather stations (PAWS) are operated by other organisations, such as Fire and Emergency Services, and are included here by agreement. Portable stations may be deployed to a location for a short period and their location may be subject to change without notice. Wind observations from these stations are provided from heights of either three (3) or ten (10) metres above ground level (AGL).

Data from the previous 72 hours. | See also: Recent months for locations in New South Wales
Date/Time
EST
Temp
°C
App
Temp
°C
Dew
Point
°C
Rel
Hum
%
Delta-T
°C
Wind Press
QNH
hPa
Press
MSL
hPa
Rain since
9am
mm
Dir  Spd
km/h
Gust
km/h
Spd
kts
Gust
kts
14/03:10pm 23.2 18.2 6.3 33 8.7 WSW 22 26 12 14 - - 0.0
14/03:00pm 23.7 18.8 6.8 33 8.8 WSW 22 30 12 16 - - 0.0
14/02:50pm 23.5 19.4 7.7 36 8.3 WSW 19 24 10 13 - - 0.0
14/02:40pm 22.7 18.4 8.0 39 7.8 WSW 20 24 11 13 - - 0.0
14/02:30pm 22.6 18.9 9.4 43 7.2 WSW 19 24 10 13 - - 0.0
14/02:20pm 22.3 18.7 8.4 41 7.4 WSW 17 24 9 13 - - 0.0
14/02:10pm 22.1 18.1 9.0 43 7.0 WSW 20 24 11 13 - - 0.0
14/02:00pm 21.9 18.4 8.6 42 7.1 WSW 17 20 9 11 - - 0.0
14/01:50pm 21.6 17.7 8.8 44 6.8 W 19 22 10 12 - - 0.0
14/01:40pm 21.1 17.3 8.9 45 6.5 W 19 24 10 13 - - 0.0
14/01:30pm 20.8 16.6 8.4 45 6.5 WSW 20 26 11 14 - - 0.0
14/01:20pm 21.0 16.8 8.1 43 6.8 WSW 20 24 11 13 - - 0.0
14/01:10pm 21.2 17.0 8.1 43 6.9 WSW 20 26 11 14 - - 0.0
14/01:00pm 21.5 17.6 8.5 43 6.9 WSW 19 24 10 13 - - 0.0
14/12:50pm 21.7 16.5 7.4 39 7.4 WSW 24 30 13 16 - - 0.0
14/12:40pm 22.3 16.8 5.7 34 8.4 WSW 24 28 13 15 - - 0.0
14/12:30pm 22.3 17.0 6.6 36 8.1 WSW 24 30 13 16 - - 0.0
14/12:20pm 21.4 16.1 6.9 39 7.5 WSW 24 28 13 15 - - 0.0
14/12:10pm 21.3 16.0 7.0 39 7.4 SW 24 28 13 15 - - 0.0
14/12:00pm 21.9 15.7 6.2 36 8.0 SW 28 30 15 16 - - 0.0
14/11:50am 23.3 16.2 3.4 27 9.7 WSW 30 33 16 18 - - 0.0
14/11:40am 24.3 17.5 0.7 21 11.0 WNW 26 30 14 16 - - 0.0
14/11:30am 23.8 17.0 1.0 22 10.7 W 26 32 14 17 - - 0.0
14/11:20am 23.7 16.9 1.1 22 10.6 W 26 33 14 18 - - 0.0
14/11:10am 23.4 16.7 1.7 24 10.3 W 26 30 14 16 - - 0.0
14/11:00am 23.5 17.2 1.3 23 10.4 W 24 33 13 18 - - 0.0
14/10:50am 22.5 16.2 1.6 25 9.8 W 24 32 13 17 - - 0.0
14/10:40am 21.3 15.1 1.9 27 9.1 WNW 24 26 13 14 - - 0.0
14/10:30am 21.1 15.7 2.4 29 8.8 WNW 20 24 11 13 - - 0.0
14/10:20am 21.0 14.5 2.7 30 8.7 WNW 26 30 14 16 - - 0.0
14/10:10am 21.4 15.2 2.4 28 9.0 WNW 24 30 13 16 - - 0.0
14/10:00am 20.9 15.1 2.2 29 8.8 WNW 22 28 12 15 - - 0.0
14/09:50am 20.3 14.9 2.4 30 8.4 WNW 20 26 11 14 - - 0.0
14/09:40am 20.1 14.8 2.8 31 8.1 NW 20 24 11 13 - - 0.0
14/09:30am 19.6 14.4 2.7 32 7.9 NW 19 20 10 11 - - 0.0
14/09:20am 19.2 14.1 2.9 34 7.6 NW 19 22 10 12 - - 0.0
14/09:10am 18.8 14.2 3.5 36 7.2 NW 17 20 9 11 - - 0.0
14/09:00am 18.4 13.7 3.0 36 7.2 NW 17 19 9 10 - - 0.0
14/08:50am 18.2 13.1 2.9 36 7.1 NW 19 22 10 12 - - 0.0
14/08:40am 18.1 12.9 2.5 35 7.2 NW 19 22 10 12 - - 0.0
14/08:30am 17.9 13.1 2.8 36 7.0 NW 17 19 9 10 - - 0.0
14/08:20am 17.8 12.7 2.8 36 6.9 NW 19 20 10 11 - - 0.0
14/07:30am 17.7 13.4 3.5 38 6.7 NNW 15 19 8 10 - - 0.0
14/07:20am 17.5 13.1 2.6 37 6.8 NNW 15 19 8 10 - - 0.0
14/07:10am 16.8 13.5 4.4 43 5.9 N 11 15 6 8 - - 0.0
14/07:00am 16.8 13.0 4.1 43 6.0 N 13 13 7 7 - - 0.0
14/06:50am 16.5 12.7 3.9 43 5.9 N 13 15 7 8 - - 0.0
14/06:40am 16.1 12.4 4.2 45 5.6 N 13 13 7 7 - - 0.0
14/06:30am 15.9 12.7 5.0 48 5.2 N 11 15 6 8 - - 0.0
14/06:20am 15.8 12.7 5.4 50 5.0 N 11 13 6 7 - - 0.0
14/06:10am 15.8 12.7 5.4 50 5.0 N 11 13 6 7 - - 0.0
14/06:00am 15.8 12.3 5.5 50 5.0 NNE 13 15 7 8 - - 0.0
14/05:50am 15.9 12.8 5.6 50 5.0 N 11 13 6 7 - - 0.0
14/05:40am 16.0 12.9 5.6 50 5.0 N 11 11 6 6 - - 0.0
14/05:30am 16.1 12.6 5.3 48 5.2 N 13 15 7 8 - - 0.0
14/05:20am 16.1 12.6 5.3 48 5.2 N 13 15 7 8 - - 0.0
14/05:10am 16.2 12.6 5.2 48 5.3 N 13 15 7 8 - - 0.0
14/05:00am 16.2 12.7 5.4 48 5.2 N 13 15 7 8 - - 0.0
14/04:50am 16.2 12.7 5.4 48 5.2 N 13 15 7 8 - - 0.0
14/04:40am 16.3 12.8 5.4 48 5.3 N 13 15 7 8 - - 0.0
14/04:30am 16.4 12.5 5.3 47 5.3 N 15 17 8 9 - - 0.0
14/04:20am 16.4 12.8 5.1 47 5.4 N 13 15 7 8 - - 0.0
14/04:10am 16.4 12.8 5.2 47 5.4 N 13 15 7 8 - - 0.0
14/04:00am 16.5 12.9 5.2 47 5.4 N 13 15 7 8 - - 0.0
14/03:50am 16.5 12.9 5.1 47 5.5 N 13 15 7 8 - - 0.0
14/03:40am 16.5 12.9 5.1 47 5.5 N 13 15 7 8 - - 0.0
14/03:30am 16.5 12.9 5.0 46 5.5 N 13 15 7 8 - - 0.0
14/03:20am 16.6 12.6 5.1 46 5.5 N 15 17 8 9 - - 0.0
14/03:10am 16.6 12.6 5.1 46 5.5 N 15 17 8 9 - - 0.0
14/03:00am 16.6 12.6 5.1 46 5.5 N 15 17 8 9 - - 0.0
14/02:50am 16.5 12.9 5.1 47 5.5 NNE 13 15 7 8 - - 0.0
14/02:40am 16.5 12.9 5.2 47 5.4 N 13 15 7 8 - - 0.0
14/02:30am 16.5 12.9 5.2 47 5.4 NNE 13 15 7 8 - - 0.0
14/02:20am 16.5 12.9 5.1 47 5.5 N 13 15 7 8 - - 0.0
14/02:10am 16.4 12.8 5.1 47 5.4 NNE 13 17 7 9 - - 0.0
14/02:00am 16.4 12.8 5.2 47 5.4 N 13 13 7 7 - - 0.0
14/01:50am 16.4 13.2 5.1 47 5.4 N 11 13 6 7 - - 0.0
14/01:40am 16.3 13.1 5.1 47 5.4 N 11 13 6 7 - - 0.0
14/01:30am 16.3 13.1 5.3 48 5.3 N 11 11 6 6 - - 0.0
14/01:20am 16.4 13.6 5.2 47 5.4 N 9 11 5 6 - - 0.0
14/01:10am 16.5 13.3 5.0 46 5.5 N 11 11 6 6 - - 0.0
14/01:00am 16.5 13.3 5.0 46 5.5 N 11 11 6 6 - - 0.0
14/12:50am 16.6 13.4 5.0 46 5.6 NNE 11 13 6 7 - - 0.0
14/12:40am 16.7 13.5 5.0 46 5.6 NNE 11 13 6 7 - - 0.0
14/12:30am 16.8 13.2 4.8 45 5.7 NNE 13 13 7 7 - - 0.0
14/12:20am 16.8 13.2 4.9 45 5.7 NNE 13 13 7 7 - - 0.0
14/12:10am 16.7 13.1 4.9 45 5.6 NNE 13 13 7 7 - - 0.0
14/12:00am 16.6 13.0 4.8 45 5.6 NNE 13 13 7 7 - - 0.0
 
Date/Time
EST
Temp
°C
App
Temp
°C
Dew
Point
°C
Rel
Hum
%
Delta-T
°C
Wind Press
QNH
hPa
Press
MSL
hPa
Rain since
9am
mm
Dir  Spd
km/h
Gust
km/h
Spd
kts
Gust
kts
13/11:50pm 16.4 12.8 5.0 47 5.5 NNE 13 15 7 8 - - 0.0
13/11:40pm 16.4 13.3 5.5 48 5.3 NNE 11 13 6 7 - - 0.0
13/11:30pm 16.7 13.5 5.1 46 5.6 NNE 11 13 6 7 - - 0.0
13/11:20pm 16.7 13.1 4.9 45 5.6 NNE 13 13 7 7 - - 0.0
13/11:10pm 16.6 13.0 5.2 47 5.5 NNE 13 13 7 7 - - 0.0
13/11:00pm 16.7 13.1 5.2 46 5.5 NNE 13 15 7 8 - - 0.0
13/10:50pm 16.6 13.0 5.2 47 5.5 NNE 13 15 7 8 - - 0.0
13/10:40pm 16.6 13.1 5.5 48 5.4 NNE 13 15 7 8 - - 0.0
13/10:30pm 17.0 13.8 5.3 46 5.7 NNE 11 13 6 7 - - 0.0
13/10:20pm 17.2 14.0 4.9 44 5.9 NNE 11 13 6 7 - - 0.0
13/10:10pm 17.3 14.0 4.5 42 6.1 NNE 11 13 6 7 - - 0.0
13/10:00pm 17.4 14.1 4.5 42 6.2 NNE 11 13 6 7 - - 0.0
13/09:50pm 17.4 13.7 4.4 42 6.2 NNE 13 15 7 8 - - 0.0
13/09:40pm 17.1 12.6 4.4 43 6.0 NE 17 17 9 9 - - 0.0
13/09:30pm 16.6 12.5 4.5 44 5.7 NE 15 19 8 10 - - 0.0
13/09:20pm 16.7 13.9 5.2 46 5.5 NE 9 11 5 6 - - 0.0
13/09:10pm 16.7 13.9 5.0 46 5.6 NE 9 9 5 5 - - 0.0
13/09:00pm 16.6 13.8 5.1 46 5.5 NE 9 11 5 6 - - 0.0
13/08:50pm 16.4 13.7 5.5 48 5.3 NE 9 11 5 6 - - 0.0
13/08:40pm 16.5 13.4 5.6 48 5.3 NE 11 11 6 6 - - 0.0
13/08:30pm 16.5 13.7 5.3 47 5.4 NE 9 9 5 5 - - 0.0
13/08:20pm 16.4 13.7 5.4 48 5.3 NE 9 11 5 6 - - 0.0
13/08:10pm 16.4 13.4 5.8 49 5.2 NE 11 11 6 6 - - 0.0
13/08:00pm 16.5 13.8 5.6 48 5.3 NE 9 11 5 6 - - 0.0
13/07:50pm 16.6 13.9 5.6 48 5.3 NNE 9 9 5 5 - - 0.0
13/07:40pm 16.6 13.9 5.6 48 5.3 NE 9 9 5 5 - - 0.0
13/07:30pm 16.8 14.1 5.4 47 5.5 NE 9 9 5 5 - - 0.0
13/07:20pm 16.8 14.3 4.9 45 5.7 NE 7 7 4 4 - - 0.0
13/07:10pm 16.7 13.8 4.9 45 5.6 NE 9 9 5 5 - - 0.0
13/07:00pm 16.8 13.6 5.1 46 5.6 NE 11 11 6 6 - - 0.0
13/06:50pm 17.0 14.2 5.2 45 5.7 NE 9 9 5 5 - - 0.0
13/06:40pm 17.2 14.7 4.8 44 5.9 NE 7 7 4 4 - - 0.0
13/06:30pm 17.2 14.7 4.7 43 6.0 NNE 7 11 4 6 - - 0.0
13/06:20pm 17.6 14.7 4.7 42 6.2 NNE 9 11 5 6 - - 0.0
13/06:10pm 17.7 15.1 4.0 40 6.5 NNE 7 9 4 5 - - 0.0
13/06:00pm 17.9 14.9 4.2 40 6.5 NNE 9 11 5 6 - - 0.0
13/05:50pm 18.4 15.4 4.2 39 6.8 N 9 11 5 6 - - 0.0
13/05:40pm 19.0 15.3 4.4 38 7.0 N 13 13 7 7 - - 0.0
13/05:30pm 19.1 16.2 4.4 38 7.1 N 9 13 5 7 - - 0.0
13/05:20pm 19.4 16.0 4.2 36 7.3 N 11 11 6 6 - - 0.0
13/05:10pm 19.7 16.3 3.8 35 7.6 NNW 11 13 6 7 - - 0.0
13/05:00pm 19.8 16.4 3.9 35 7.6 NNW 11 13 6 7 - - 0.0
13/04:50pm 20.1 17.2 4.4 35 7.6 N 9 13 5 7 - - 0.0
13/04:40pm 20.2 16.8 4.0 34 7.8 N 11 13 6 7 - - 0.0
13/04:30pm 19.8 16.4 4.2 35 7.5 N 11 13 6 7 - - 0.0
13/04:20pm 20.3 16.6 4.5 35 7.7 N 13 17 7 9 - - 0.0
13/04:10pm 20.5 16.4 4.3 34 7.9 N 15 17 8 9 - - 0.0
13/04:00pm 20.8 17.6 5.3 36 7.7 N 11 13 6 7 - - 0.0
13/03:50pm 21.1 17.8 4.5 33 8.1 N 11 15 6 8 - - 0.0
13/03:40pm 20.7 17.5 5.0 35 7.7 N 11 13 6 7 - - 0.0
13/03:30pm 20.7 16.6 4.6 34 7.9 N 15 17 8 9 - - 0.0
13/03:20pm 21.3 17.6 4.4 33 8.3 N 13 17 7 9 - - 0.0
13/03:10pm 21.5 18.4 3.8 31 8.6 N 9 13 5 7 - - 0.0
13/03:00pm 21.0 17.6 4.0 32 8.2 N 11 15 6 8 - - 0.0
13/02:50pm 21.3 18.0 4.5 33 8.2 NNE 11 13 6 7 - - 0.0
13/02:40pm 20.3 17.1 4.9 36 7.6 N 11 17 6 9 - - 0.0
13/02:30pm 20.7 17.0 4.4 34 8.0 N 13 17 7 9 - - 0.0
13/02:20pm 20.6 17.3 4.3 34 7.9 N 11 15 6 8 - - 0.0
13/02:10pm 20.3 16.6 4.2 34 7.8 NNW 13 19 7 10 - - 0.0
13/02:00pm 20.8 17.5 4.7 34 7.9 N 11 15 6 8 - - 0.0
13/01:50pm 20.4 16.9 5.4 37 7.4 N 13 19 7 10 - - 0.0
13/01:40pm 20.1 16.3 4.0 34 7.8 N 13 17 7 9 - - 0.0
13/01:30pm 19.9 16.0 5.4 38 7.2 N 15 20 8 11 - - 0.0
13/01:20pm 19.8 16.5 4.6 36 7.4 N 11 15 6 8 - - 0.0
13/01:10pm 19.6 15.9 4.6 37 7.3 N 13 15 7 8 - - 0.0
13/01:00pm 19.8 16.5 4.8 37 7.3 NNW 11 17 6 9 - - 0.0
13/12:50pm 19.2 16.0 5.0 39 6.9 N 11 17 6 9 - - 0.0
13/12:40pm 19.0 15.9 5.6 41 6.6 N 11 17 6 9 - - 0.0
13/12:30pm 18.8 15.7 5.5 41 6.5 NNW 11 15 6 8 - - 0.0
13/12:20pm 18.8 15.4 5.7 42 6.5 N 13 17 7 9 - - 0.0
13/12:10pm 19.0 15.5 5.6 41 6.6 N 13 17 7 9 - - 0.0
13/12:00pm 18.6 15.2 5.7 42 6.4 N 13 17 7 9 - - 0.0
13/11:50am 18.6 15.1 5.4 42 6.5 N 13 17 7 9 - - 0.0
13/11:40am 18.8 15.0 6.0 43 6.4 N 15 19 8 10 - - 0.0
13/11:30am 19.0 15.6 6.0 42 6.5 NNW 13 17 7 9 - - 0.0
13/11:20am 18.8 15.9 6.3 44 6.2 N 11 15 6 8 - - 0.0
13/11:10am 18.8 15.9 6.3 44 6.2 N 11 17 6 9 - - 0.0
13/11:00am 18.3 14.5 6.0 44 6.1 NNE 15 19 8 10 - - 0.0
13/10:50am 17.7 14.1 6.6 48 5.5 N 15 17 8 9 - - 0.0
13/10:40am 17.2 13.5 6.2 48 5.4 NNE 15 17 8 9 - - 0.0
13/10:30am 16.8 13.1 6.2 49 5.2 NNE 15 17 8 9 - - 0.0
13/10:20am 16.2 12.6 6.6 53 4.7 NNE 15 17 8 9 - - 0.0
13/10:10am 16.0 12.3 6.4 53 4.7 NNE 15 17 8 9 - - 0.0
13/10:00am 15.7 12.5 6.9 56 4.4 NNE 13 17 7 9 - - 0.0
13/09:50am 15.8 11.7 6.3 53 4.6 N 17 19 9 10 - - 0.0
13/09:40am 15.5 11.8 6.2 54 4.5 NNE 15 17 8 9 - - 0.0
13/09:30am 15.1 11.9 6.7 57 4.1 NNE 13 17 7 9 - - 0.0
13/09:20am 14.5 11.6 6.4 58 3.9 NNE 11 13 6 7 - - 0.0
13/09:10am 13.6 10.6 6.0 60 3.6 NNE 11 13 6 7 - - 0.0
13/09:00am 13.7 10.0 6.2 60 3.6 NNE 15 17 8 9 - - 0.0
13/08:50am 13.2 9.4 5.9 61 3.5 NNE 15 17 8 9 - - 0.0
13/08:40am 12.7 9.4 6.2 64 3.1 NNE 13 15 7 8 - - 0.0
13/08:30am 11.9 8.2 6.1 67 2.7 NNE 15 17 8 9 - - 0.0
13/08:20am 11.2 7.1 6.1 71 2.4 NE 17 17 9 9 - - 0.0
13/08:10am 10.4 7.4 6.1 75 2.0 NE 11 15 6 8 - - 0.0
13/08:00am 9.2 7.2 6.2 81 1.4 NE 6 7 3 4 - - 0.0
13/07:50am 8.1 5.9 5.3 82 1.3 NE 6 7 3 4 - - 0.0
13/07:40am 7.5 5.0 5.0 84 1.1 NE 7 7 4 4 - - 0.0
13/07:30am 7.8 5.3 5.0 82 1.2 ENE 7 7 4 4 - - 0.0
13/07:20am 7.4 5.0 4.5 82 1.3 NE 6 7 3 4 - - 0.0
13/07:10am 6.3 3.8 3.5 82 1.2 NE 6 7 3 4 - - 0.0
13/07:00am 5.4 2.6 3.0 84 1.0 ENE 7 9 4 5 - - 0.0
13/06:50am 5.1 2.3 3.0 86 0.9 ENE 7 9 4 5 - - 0.0
13/06:40am 4.9 1.7 3.0 87 0.8 NE 9 9 5 5 - - 0.0
13/06:30am 4.9 1.7 3.0 87 0.8 NE 9 9 5 5 - - 0.0
13/06:20am 5.0 1.4 2.9 86 0.9 NE 11 11 6 6 - - 0.0
13/06:10am 4.8 1.6 2.9 87 0.8 NE 9 11 5 6 - - 0.0
13/06:00am 4.4 0.7 2.5 87 0.8 NE 11 11 6 6 - - 0.0
13/05:50am 4.3 1.0 2.5 88 0.7 ENE 9 11 5 6 - - 0.0
13/05:40am 4.3 1.4 2.6 89 0.7 ENE 7 9 4 5 - - 0.0
13/05:30am 4.4 1.5 2.7 89 0.7 ENE 7 7 4 4 - - 0.0
13/05:20am 4.8 2.0 2.9 87 0.8 ENE 7 7 4 4 - - 0.0
13/05:10am 5.0 2.2 3.2 88 0.7 NE 7 9 4 5 - - 0.0
13/05:00am 5.1 2.3 3.2 87 0.8 NNE 7 7 4 4 - - 0.0
13/04:50am 5.1 2.3 3.1 87 0.8 NNE 7 7 4 4 - - 0.0
13/04:40am 5.2 2.6 3.0 86 0.9 NE 6 7 3 4 - - 0.0
13/04:30am 5.6 3.4 3.3 85 1.0 ENE 4 6 2 3 - - 0.0
13/04:20am 5.8 3.2 3.4 84 1.0 ENE 6 6 3 3 - - 0.0
13/04:10am 5.5 2.7 3.3 86 0.9 ENE 7 7 4 4 - - 0.0
13/04:00am 5.3 2.5 3.2 86 0.9 ENE 7 9 4 5 - - 0.0
13/03:50am 5.1 2.3 3.2 87 0.8 E 7 9 4 5 - - 0.0
13/03:40am 5.2 2.4 3.4 88 0.8 E 7 7 4 4 - - 0.0
13/03:30am 5.5 2.9 3.4 86 0.9 ENE 6 7 3 4 - - 0.0
13/03:20am 6.0 3.2 3.3 83 1.1 NE 7 7 4 4 - - 0.0
13/03:10am 6.2 3.4 3.4 82 1.2 NNE 7 7 4 4 - - 0.0
13/03:00am 6.1 3.5 3.4 83 1.1 NNE 6 7 3 4 - - 0.0
13/02:50am 5.9 3.1 3.4 84 1.1 NNE 7 7 4 4 - - 0.0
13/02:40am 5.9 3.1 3.4 84 1.1 NNE 7 7 4 4 - - 0.0
13/02:30am 5.7 2.9 3.2 84 1.0 NNE 7 7 4 4 - - 0.0
13/02:20am 5.5 2.7 3.2 85 1.0 NNE 7 7 4 4 - - 0.0
13/02:10am 5.8 3.0 3.3 84 1.1 NNE 7 9 4 5 - - 0.0
13/02:00am 6.2 3.4 3.4 82 1.2 NNE 7 7 4 4 - - 0.0
13/01:50am 6.2 3.4 3.4 82 1.2 NNE 7 9 4 5 - - 0.0
13/01:40am 6.3 3.5 3.4 82 1.2 NNE 7 9 4 5 - - 0.0
13/01:30am 6.3 3.5 3.4 82 1.2 N 7 7 4 4 - - 0.0
13/01:20am 6.4 3.8 3.4 81 1.3 N 6 7 3 4 - - 0.0
13/01:10am 6.4 3.8 3.4 81 1.3 N 6 7 3 4 - - 0.0
13/01:00am 6.2 3.6 3.2 81 1.3 N 6 6 3 3 - - 0.0
13/12:50am 6.2 3.6 3.3 82 1.2 NNE 6 6 3 3 - - 0.0
13/12:40am 6.4 3.8 3.4 81 1.3 NNE 6 6 3 3 - - 0.0
13/12:30am 6.6 4.1 3.6 81 1.3 N 6 6 3 3 - - 0.0
13/12:20am 6.7 4.2 3.5 80 1.4 N 6 6 3 3 - - 0.0
13/12:10am 6.4 3.9 3.5 82 1.2 NNE 6 6 3 3 - - 0.0
13/12:00am 6.9 4.8 3.9 81 1.3 NNE 4 6 2 3 - - 0.0
 
Date/Time
EST
Temp
°C
App
Temp
°C
Dew
Point
°C
Rel
Hum
%
Delta-T
°C
Wind Press
QNH
hPa
Press
MSL
hPa
Rain since
9am
mm
Dir  Spd
km/h
Gust
km/h
Spd
kts
Gust
kts
12/11:50pm 7.2 5.1 3.9 79 1.4 NE 4 4 2 2 - - 0.0
12/11:40pm 7.9 6.2 4.1 77 1.7 N 2 4 1 2 - - 0.0
12/11:30pm 8.0 6.3 4.2 77 1.7 SW 2 4 1 2 - - 0.0
12/11:20pm 8.2 6.5 4.0 75 1.8 WSW 2 2 1 1 - - 0.0
12/11:10pm 8.2 6.5 4.1 75 1.8 W 2 2 1 1 - - 0.0
12/11:00pm 8.6 6.9 4.0 73 2.0 WSW 2 4 1 2 - - 0.0
12/10:50pm 8.5 6.5 4.2 74 1.9 SSW 4 4 2 2 - - 0.0
12/10:40pm 8.6 6.6 4.3 74 1.9 SSW 4 4 2 2 - - 0.0
12/10:30pm 8.9 6.5 4.2 72 2.1 SSW 6 6 3 3 - - 0.0
12/10:20pm 9.5 7.5 4.3 70 2.3 SW 4 7 2 4 - - 0.0
12/10:10pm 10.1 8.1 4.2 67 2.6 SSW 4 4 2 2 - - 0.0
12/10:00pm 10.1 8.1 4.6 68 2.5 S 4 4 2 2 - - 0.0
12/09:50pm 10.5 8.4 4.1 64 2.9 S 4 4 2 2 - - 0.0
12/09:40pm 10.4 8.4 4.2 65 2.8 S 4 6 2 3 - - 0.0
12/09:30pm 10.7 8.7 4.3 64 2.9 S 4 6 2 3 - - 0.0
12/09:20pm 11.0 8.6 4.1 62 3.1 S 6 6 3 3 - - 0.0
12/09:10pm 10.8 8.3 4.0 63 3.0 S 6 6 3 3 - - 0.0
12/09:00pm 10.8 8.3 3.9 62 3.1 SSW 6 6 3 3 - - 0.0
12/08:50pm 10.3 7.8 3.8 64 2.9 SSW 6 7 3 4 - - 0.0
12/08:40pm 10.4 8.0 4.1 65 2.8 SW 6 7 3 4 - - 0.0
12/08:30pm 11.3 9.2 4.0 61 3.3 S 4 7 2 4 - - 0.0
12/08:20pm 11.5 9.4 4.1 60 3.3 SSE 4 4 2 2 - - 0.0
12/08:10pm 11.8 9.7 3.9 58 3.6 SE 4 6 2 3 - - 0.0
12/08:00pm 11.8 9.7 3.8 58 3.6 SE 4 6 2 3 - - 0.0
12/07:50pm 11.7 9.6 4.0 59 3.5 S 4 6 2 3 - - 0.0
12/07:40pm 11.8 9.7 4.1 59 3.5 S 4 6 2 3 - - 0.0
12/07:30pm 12.1 9.6 4.0 57 3.7 SE 6 6 3 3 - - 0.0
12/07:20pm 12.1 9.5 4.0 57 3.7 SSE 7 7 4 4 - - 0.0
12/07:10pm 12.2 9.7 4.0 57 3.7 SSE 6 7 3 4 - - 0.0
12/07:00pm 12.4 9.9 3.9 56 3.8 SSE 6 7 3 4 - - 0.0
12/06:50pm 12.5 10.0 3.9 56 3.9 SSE 6 6 3 3 - - 0.0
12/06:40pm 12.6 9.9 3.9 55 3.9 SSE 7 7 4 4 - - 0.0
12/06:30pm 12.8 10.2 4.0 55 4.0 SSE 7 9 4 5 - - 0.0
12/06:20pm 13.1 10.7 4.2 54 4.1 S 6 9 3 5 - - 0.0
12/06:10pm 13.7 11.1 4.3 53 4.3 S 7 7 4 4 - - 0.0
12/06:00pm 14.4 11.5 4.4 51 4.7 SSE 9 9 5 5 - - 0.0
12/05:50pm 15.3 12.4 4.6 49 5.0 SSE 9 9 5 5 - - 0.0
12/05:40pm 16.4 13.9 4.8 46 5.5 SSE 7 9 4 5 - - 0.0
12/05:30pm 17.3 14.4 4.4 42 6.1 S 9 11 5 6 - - 0.0
12/05:20pm 17.8 14.9 4.6 41 6.3 S 9 11 5 6 - - 0.0
12/05:10pm 18.3 15.8 4.6 40 6.6 S 7 13 4 7 - - 0.0
12/05:00pm 18.5 15.9 4.3 39 6.8 S 7 11 4 6 - - 0.0
12/04:50pm 18.5 15.5 4.2 38 6.8 SSE 9 11 5 6 - - 0.0
12/04:40pm 18.8 15.8 4.3 38 7.0 SSE 9 11 5 6 - - 0.0
12/04:30pm 19.1 15.4 4.4 38 7.1 SSE 13 17 7 9 - - 0.0
12/04:20pm 19.6 16.7 4.5 37 7.3 S 9 13 5 7 - - 0.0
12/04:10pm 19.7 16.4 4.7 37 7.3 S 11 15 6 8 - - 0.0
12/04:00pm 19.8 15.7 4.5 36 7.4 SSW 15 17 8 9 - - 0.0
12/03:50pm 20.1 17.2 4.5 36 7.6 SSW 9 11 5 6 - - 0.0
12/03:40pm 19.9 16.9 4.2 35 7.6 S 9 17 5 9 - - 0.0
12/03:30pm 19.9 16.2 4.3 35 7.6 SSE 13 17 7 9 - - 0.0
12/03:20pm 20.1 16.4 4.2 35 7.7 SSE 13 17 7 9 - - 0.0
12/03:10pm 20.2 16.9 4.4 35 7.7 SSE 11 17 6 9 - - 0.0
12/03:00pm 20.7 17.4 4.3 34 8.0 S 11 13 6 7 - - 0.0
12/02:50pm 20.4 18.0 4.3 34 7.8 SSW 6 17 3 9 - - 0.0
12/02:40pm 19.9 17.2 3.5 34 7.8 S 7 15 4 8 - - 0.0
12/02:30pm 20.2 17.2 4.2 35 7.7 S 9 15 5 8 - - 0.0
12/02:20pm 20.4 17.1 4.3 34 7.8 S 11 19 6 10 - - 0.0
12/02:10pm 20.5 17.5 4.1 34 7.9 SSW 9 11 5 6 - - 0.0
12/02:00pm 20.1 17.2 4.4 35 7.6 WSW 9 15 5 8 - - 0.0
12/01:50pm 20.4 16.9 3.5 32 8.1 S 11 19 6 10 - - 0.0
12/01:40pm 20.3 17.3 4.3 35 7.8 SW 9 13 5 7 - - 0.0
12/01:30pm 20.2 16.9 4.7 36 7.6 S 11 15 6 8 - - 0.0
12/01:20pm 20.1 17.5 4.0 34 7.8 S 7 13 4 7 - - 0.0
12/01:10pm 19.7 16.8 4.4 36 7.4 SSW 9 13 5 7 - - 0.0
12/01:00pm 19.3 16.0 4.6 38 7.1 SSW 11 17 6 9 - - 0.0
12/12:50pm 19.1 16.5 4.0 37 7.2 SSW 7 11 4 6 - - 0.0
12/12:40pm 19.0 15.6 4.1 37 7.1 SW 11 17 6 9 - - 0.0
12/12:30pm 19.0 16.0 3.9 36 7.2 S 9 15 5 8 - - 0.0
12/12:20pm 18.9 15.8 3.7 36 7.2 SSW 9 13 5 7 - - 0.0
12/12:10pm 18.4 15.6 5.3 42 6.4 SSW 9 13 5 7 - - 0.0
12/12:00pm 18.2 15.8 5.1 42 6.4 S 7 11 4 6 - - 0.0
12/11:50am 18.1 15.6 4.6 41 6.5 S 7 13 4 7 - - 0.0
12/11:40am 17.9 14.9 4.2 40 6.5 SSW 9 13 5 7 - - 0.0
12/11:30am 17.6 14.7 4.4 41 6.3 S 9 13 5 7 - - 0.0
12/11:20am 17.6 14.6 4.1 40 6.4 SSW 9 13 5 7 - - 0.0
12/11:10am 17.5 14.1 4.2 41 6.3 SSW 11 13 6 7 - - 0.0
12/11:00am 17.4 14.9 4.5 42 6.2 S 7 11 4 6 - - 0.0
12/10:50am 16.8 14.1 5.5 47 5.5 SSW 9 13 5 7 - - 0.0
12/10:40am 16.5 13.4 5.6 48 5.3 S 11 13 6 7 - - 0.0
12/10:30am 16.3 13.3 6.1 51 5.0 S 11 13 6 7 - - 0.0
12/10:20am 15.7 12.2 5.6 51 4.9 S 13 15 7 8 - - 0.0
12/10:10am 15.3 12.4 6.3 55 4.4 S 11 15 6 8 - - 0.0
12/10:00am 15.0 11.6 6.1 55 4.3 S 13 15 7 8 - - 0.0
12/09:50am 14.6 11.7 6.5 58 3.9 SSW 11 13 6 7 - - 0.0
12/09:40am 14.0 10.7 6.3 60 3.7 SSW 13 17 7 9 - - 0.0
12/09:30am 13.4 10.1 6.5 63 3.3 S 13 19 7 10 - - 0.0
12/09:20am 13.0 9.3 6.5 64 3.1 SSW 15 20 8 11 - - 0.0
12/09:10am 12.6 9.4 6.9 68 2.8 SSW 13 20 7 11 - - 0.0
12/09:00am 11.7 8.1 6.7 71 2.4 SSW 15 17 8 9 - - 0.0
12/08:50am 11.4 8.1 6.6 72 2.3 SSW 13 17 7 9 - - 0.0
12/08:40am 10.8 8.0 6.8 76 1.9 SSW 11 15 6 8 - - 0.0
12/08:30am 10.2 7.6 6.3 77 1.8 S 9 13 5 7 - - 0.0
12/08:20am 9.6 6.6 6.1 79 1.6 SSW 11 15 6 8 - - 0.0
12/08:10am 8.9 5.1 5.9 81 1.4 SSW 15 17 8 9 - - 0.0
12/08:00am 8.4 5.4 5.8 84 1.2 SSW 11 13 6 7 - - 0.0
12/07:50am 7.7 5.0 5.5 86 1.0 SW 9 9 5 5 - - 0.0
12/07:40am 7.1 4.3 5.1 87 0.9 SW 9 9 5 5 - - 0.0
12/07:30am 6.3 3.8 4.7 89 0.7 SW 7 9 4 5 - - 0.0
12/07:20am 5.6 3.2 4.2 91 0.6 SSW 6 6 3 3 - - 0.0
12/07:10am 4.9 2.4 3.9 93 0.4 SSW 6 7 3 4 - - 0.0
12/07:00am 4.3 1.8 3.5 94 0.3 SSW 6 7 3 4 - - 0.0
12/06:50am 3.9 1.1 3.0 94 0.4 SW 7 7 4 4 - - 0.0
12/06:40am 3.8 1.2 3.0 94 0.3 SW 6 7 3 4 - - 0.0
12/06:30am 3.6 1.3 2.7 94 0.4 SW 4 6 2 3 - - 0.0
12/06:20am 3.7 1.0 2.6 92 0.4 SW 6 7 3 4 - - 0.0
12/06:10am 3.8 0.9 2.8 93 0.4 SW 7 7 4 4 - - 0.0
12/06:00am 3.9 1.0 2.8 92 0.4 SW 7 7 4 4 - - 0.0
12/05:50am 4.2 1.4 3.0 92 0.5 SSW 7 7 4 4 - - 0.0
12/05:40am 4.2 1.4 3.1 92 0.5 SSW 7 9 4 5 - - 0.0
12/05:30am 4.0 0.8 2.9 92 0.4 SW 9 9 5 5 - - 0.0
12/05:20am 4.1 1.2 2.8 91 0.5 SW 7 9 4 5 - - 0.0
12/05:10am 4.5 1.7 3.1 91 0.6 SSW 7 9 4 5 - - 0.0
12/05:00am 4.6 1.4 3.2 91 0.6 SW 9 11 5 6 - - 0.0
12/04:50am 4.7 1.1 3.2 90 0.6 SW 11 13 6 7 - - 0.0
12/04:40am 4.8 0.9 3.3 90 0.6 SW 13 13 7 7 - - 0.0
12/04:30am 4.9 1.4 3.3 89 0.7 SW 11 13 6 7 - - 0.0
12/04:20am 5.1 1.2 3.3 88 0.8 SW 13 15 7 8 - - 0.0
12/04:10am 5.2 1.3 3.4 88 0.8 SW 13 15 7 8 - - 0.0
12/04:00am 5.1 1.2 3.4 89 0.7 SW 13 15 7 8 - - 0.0
12/03:50am 5.0 0.7 3.3 89 0.7 SW 15 17 8 9 - - 0.0
12/03:40am 5.3 1.4 3.3 87 0.8 SW 13 15 7 8 - - 0.0
12/03:30am 5.6 1.7 3.5 86 0.9 SW 13 15 7 8 - - 0.0
12/03:20am 5.5 1.6 3.4 86 0.9 SW 13 15 7 8 - - 0.0
12/03:10am 5.4 1.5 3.3 86 0.9 SW 13 13 7 7 - - 0.0
12/03:00am 5.3 1.8 3.3 87 0.8 SW 11 13 6 7 - - 0.0
12/02:50am 5.2 1.3 3.2 87 0.8 SW 13 15 7 8 - - 0.0
12/02:40am 5.1 1.1 3.1 87 0.8 SW 13 15 7 8 - - 0.0
12/02:30am 5.5 1.5 3.1 84 1.0 SW 13 13 7 7 - - 0.0
12/02:20am 5.6 2.0 3.2 84 1.0 SW 11 13 6 7 - - 0.0
12/02:10am 5.8 1.8 3.1 83 1.1 SW 13 13 7 7 - - 0.0
12/02:00am 5.9 1.9 3.0 82 1.2 WSW 13 13 7 7 - - 0.0
12/01:50am 5.3 1.7 3.0 85 1.0 WSW 11 13 6 7 - - 0.0
12/01:40am 5.6 2.0 3.1 84 1.0 SW 11 11 6 6 - - 0.0
12/01:30am 5.8 2.2 3.1 83 1.1 SW 11 11 6 6 - - 0.0
12/01:20am 5.9 1.9 3.0 82 1.2 SW 13 15 7 8 - - 0.0
12/01:10am 5.9 1.9 2.9 81 1.2 SW 13 13 7 7 - - 0.0
12/01:00am 5.9 2.6 2.7 80 1.3 WSW 9 11 5 6 - - 0.0
12/12:50am 5.9 2.6 2.7 80 1.3 WSW 9 9 5 5 - - 0.0
12/12:40am 6.1 2.8 2.6 78 1.5 WSW 9 9 5 5 - - 0.0
12/12:30am 6.0 3.1 2.7 79 1.4 WSW 7 9 4 5 - - 0.0
12/12:20am 6.3 3.0 2.7 78 1.5 SW 9 11 5 6 - - 0.0
12/12:10am 6.3 2.6 2.6 77 1.5 SW 11 13 6 7 - - 0.0
12/12:00am 6.1 2.0 2.5 78 1.5 SW 13 13 7 7 - - 0.0
 
Date/Time
EST
Temp
°C
App
Temp
°C
Dew
Point
°C
Rel
Hum
%
Delta-T
°C
Wind Press
QNH
hPa
Press
MSL
hPa
Rain since
9am
mm
Dir  Spd
km/h
Gust
km/h
Spd
kts
Gust
kts
11/11:50pm 5.9 1.8 2.3 78 1.5 SW 13 13 7 7 - - 0.0
11/11:40pm 5.6 1.5 2.4 80 1.3 SW 13 13 7 7 - - 0.0
11/11:30pm 5.7 2.0 2.1 78 1.5 SW 11 13 6 7 - - 0.0
11/11:20pm 5.5 1.7 2.0 78 1.4 SW 11 13 6 7 - - 0.0
11/11:10pm 5.7 2.3 2.1 78 1.5 SW 9 11 5 6 - - 0.0
11/11:00pm 5.9 3.0 2.4 78 1.4 SW 7 9 4 5 - - 0.0
11/10:50pm 6.2 2.9 2.4 76 1.6 SW 9 11 5 6 - - 0.0
11/10:40pm 6.1 2.4 2.4 77 1.5 SW 11 11 6 6 - - 0.0
11/10:30pm 5.9 2.2 2.6 79 1.4 SW 11 13 6 7 - - 0.0
11/10:20pm 6.2 3.0 2.8 79 1.4 SW 9 11 5 6 - - 0.0
11/10:10pm 6.3 3.1 3.1 80 1.3 SW 9 9 5 5 - - 0.0
11/10:00pm 6.3 3.1 3.2 80 1.3 SW 9 11 5 6 - - 0.0
11/09:50pm 6.3 2.7 3.0 79 1.4 SW 11 11 6 6 - - 0.0
11/09:40pm 6.7 3.5 3.0 77 1.6 SW 9 9 5 5 - - 0.0
11/09:30pm 7.0 4.2 3.2 77 1.6 WSW 7 9 4 5 - - 0.0
11/09:20pm 7.4 5.3 3.7 77 1.6 SW 4 6 2 3 - - 0.0
11/09:10pm 7.8 5.7 4.0 77 1.7 SSW 4 6 2 3 - - 0.0
11/09:00pm 8.5 5.8 3.6 71 2.1 SSW 7 9 4 5 - - 0.0
11/08:50pm 9.0 5.9 3.7 69 2.3 SSW 9 9 5 5 - - 0.0
11/08:40pm 9.1 6.0 3.7 69 2.4 SSW 9 11 5 6 - - 0.0
11/08:30pm 9.3 5.8 3.7 68 2.5 SSW 11 13 6 7 - - 0.0
11/08:20pm 9.2 5.7 3.6 68 2.4 S 11 11 6 6 - - 0.0
11/08:10pm 9.2 6.1 3.6 68 2.4 S 9 11 5 6 - - 0.0
11/08:00pm 9.7 7.0 3.6 66 2.7 S 7 9 4 5 - - 0.0
11/07:50pm 9.9 6.8 3.5 64 2.8 SSW 9 11 5 6 - - 0.0
11/07:40pm 10.3 7.6 3.5 62 3.0 S 7 9 4 5 - - 0.0
11/07:30pm 10.7 7.6 3.7 62 3.1 S 9 9 5 5 - - 0.0
11/07:20pm 11.0 7.9 3.6 60 3.3 S 9 9 5 5 - - 0.0
11/07:10pm 11.0 7.9 3.6 60 3.3 S 9 11 5 6 - - 0.0
11/07:00pm 11.1 8.5 4.1 62 3.1 S 7 7 4 4 - - 0.0
11/06:50pm 11.6 8.6 4.0 59 3.4 S 9 9 5 5 - - 0.0
11/06:40pm 11.7 8.6 3.7 58 3.6 S 9 9 5 5 - - 0.0
11/06:30pm 11.6 8.8 3.4 57 3.6 S 7 9 4 5 - - 0.0
11/06:20pm 12.1 9.4 3.5 55 3.8 SSW 7 9 4 5 - - 0.0
11/06:10pm 12.8 10.0 3.4 53 4.2 S 7 9 4 5 - - 0.0
11/06:00pm 13.2 10.0 3.2 50 4.5 S 9 11 5 6 - - 0.0
11/05:50pm 13.6 9.6 3.0 48 4.8 S 13 15 7 8 - - 0.0
11/05:40pm 14.0 9.6 2.6 46 5.1 S 15 17 8 9 - - 0.0
11/05:30pm 14.3 10.2 2.1 43 5.4 S 13 19 7 10 - - 0.0
11/05:20pm 14.5 10.4 2.0 43 5.5 S 13 15 7 8 - - 0.0
11/05:10pm 14.7 10.1 1.4 40 5.8 S 15 17 8 9 - - 0.0
11/05:00pm 15.3 9.9 1.3 38 6.1 S 19 22 10 12 - - 0.0
11/04:50pm 15.9 10.4 0.3 34 6.7 SSW 19 22 10 12 - - 0.0
11/04:40pm 15.3 8.5 0.8 37 6.3 SSW 26 32 14 17 - - 0.0
11/04:30pm 16.6 9.4 0.8 34 6.9 SW 28 32 15 17 - - 0.0
11/04:20pm 16.0 10.3 0.5 35 6.7 SSW 20 24 11 13 - - 0.0
11/04:10pm 15.9 10.3 1.0 36 6.5 SSW 20 28 11 15 - - 0.0
11/04:00pm 15.6 8.9 1.3 38 6.3 SW 26 30 14 16 - - 0.0
11/03:50pm 16.8 10.1 1.3 35 6.9 SW 26 30 14 16 - - 0.0
11/03:40pm 16.9 10.5 1.0 34 7.0 SW 24 32 13 17 - - 0.0
11/03:30pm 16.9 10.5 1.1 34 7.0 SSW 24 30 13 16 - - 0.0

Other formats

Comma delimited format used in spreadsheet applications
http://www.bom.gov.au/fwo/IDN60801/IDN60801.99791.axf

JavaScript Object Notation format (JSON) in row-major order
http://www.bom.gov.au/fwo/IDN60801/IDN60801.99791.json

Data quality

Most of these data are generated automatically and are frequently updated. Quality checks on data are not normally performed. It is possible for incorrect values to appear. Refer to information at About Latest Weather Observations and please check the disclaimer before using these data.